Aérodrome :
LOGIN :

S'inscrire | Disclaimer

   EN    FR    IT 

 










Légende :    VFR   VFR Marginal   IFR   IFR Intensif   IFR Très Intensif
Visi : 
Plafond : 
>= 8 km
>= 3000ft
5 à 8 km
1000 à 3000 ft
1500m à 5 km
500 à 1000 ft
800 à 1500m
200 à 500 ft
< 800m
< 200 ft
Symboles :   Orages  Brouillard  Fortes neiges  Fortes précipitations  Vent > 20 kt
SIGMETs :   Divers  Orages  Givrage  Turbulence  Onde Orograph.  Cendres Volcan.







- Altitude de l'aérodrome : 1276 ft
- Code IATA : STR


EDDS - Stuttgart

DERNIER METAR :
  • 210950Z 29016KT 9999 FEW019 SCT023 02/M01 Q1014 NOSIG

METARs EXPIRÉS :
  • 210920Z 29013KT 9999 -SHSN FEW017 SCT027 02/00 Q1014 NOSIG
  • 210850Z 28011KT 9999 VCSH FEW016 SCT024 BKN048 02/00 Q1013 NOSIG
  • 210820Z 28011KT 9999 -SHSN FEW015 BKN023 02/M00 Q1013 NOSIG
  • 210750Z 28010KT 9999 -SHSN FEW014 BKN024 BKN046 02/00 Q1012 NOSIG
  • 210720Z 29012KT 9999 FEW016 BKN024 BKN051 02/00 Q1011 NOSIG

TAF TAF EDDS
Valide du 21 à 06h jusqu'au 22 à 06h UTC


210500Z 2106/2206 28009KT 9000 SCT010 BKN020
TEMPO 2106/2110 4000 -RASN BKN010
BECMG 2116/2119 16004KT
TEMPO 2123/2203 2000 SN BKN005
PROB30
TEMPO 2202/2205 -FZRA
TEMPO 2203/2206 3500 RA BKN008
Pas de NOTAMs connus pour ce terrain.
1 SIGMET publié pour la FIR Langen (EDGG) :
 
Givrage fort
EDGG SIGMET 1 VALID 210930/211200 EDZF
EDGG LANGEN FIR SEV ICE OBS WI N4922 E01057 - N4838 E00942 - N4808 E00936 - N4742 E00728 - N4742 E00725 - N4843 E00750 - N4922 E01057 4000FT/FL070 MOV SE WKN=



MET'MAP, la Météo Aéronautique d'un coup d'oeil ! - Copyright ORBIFLY Décembre 2007 - Disclaimer

ORBIFLY MET'MAP TEAM :

Programmation & Développement : Alexandra Zaïnal
Conception & Développement : Baudouin d'Aumeries
Co-Programmation & Développement : Marc-Olivier Méhu
Soutien technique & logistique : Manuel Goepfert

Contact : metmap@orbifly.com




SOURCES & CREDITS :

   NOAA